sensor_id;sensor_type;location;lat;lon;timestamp;temperature;humidity
50969;DHT22;36982;51.474;7.228;2022-10-30T00:02:11;18.60;99.90
50969;DHT22;36982;51.474;7.228;2022-10-30T00:04:37;18.60;99.90
50969;DHT22;36982;51.474;7.228;2022-10-30T00:07:02;18.60;99.90
50969;DHT22;36982;51.474;7.228;2022-10-30T00:09:28;18.70;99.90
50969;DHT22;36982;51.474;7.228;2022-10-30T00:11:53;18.60;99.90
50969;DHT22;36982;51.474;7.228;2022-10-30T00:14:19;18.60;99.90
50969;DHT22;36982;51.474;7.228;2022-10-30T00:16:44;18.60;99.90
50969;DHT22;36982;51.474;7.228;2022-10-30T00:19:10;18.60;99.90
50969;DHT22;36982;51.474;7.228;2022-10-30T00:21:36;18.60;99.90
50969;DHT22;36982;51.474;7.228;2022-10-30T00:24:01;18.60;99.90
50969;DHT22;36982;51.474;7.228;2022-10-30T00:26:27;18.70;99.90
50969;DHT22;36982;51.474;7.228;2022-10-30T00:28:54;18.60;99.90
50969;DHT22;36982;51.474;7.228;2022-10-30T00:31:21;18.60;99.90
50969;DHT22;36982;51.474;7.228;2022-10-30T00:33:53;18.60;99.90
50969;DHT22;36982;51.474;7.228;2022-10-30T00:36:20;18.60;99.90
50969;DHT22;36982;51.474;7.228;2022-10-30T00:38:46;18.60;99.90
50969;DHT22;36982;51.474;7.228;2022-10-30T00:41:20;18.40;99.90
50969;DHT22;36982;51.474;7.228;2022-10-30T00:43:47;18.60;99.90
50969;DHT22;36982;51.474;7.228;2022-10-30T00:48:49;18.40;99.90
50969;DHT22;36982;51.474;7.228;2022-10-30T00:51:17;18.10;99.90
50969;DHT22;36982;51.474;7.228;2022-10-30T00:53:43;18.30;99.90
50969;DHT22;36982;51.474;7.228;2022-10-30T00:56:10;18.40;99.90
50969;DHT22;36982;51.474;7.228;2022-10-30T00:58:46;18.40;99.90
50969;DHT22;36982;51.474;7.228;2022-10-30T01:01:16;18.10;99.90
50969;DHT22;36982;51.474;7.228;2022-10-30T01:03:44;18.10;99.90
50969;DHT22;36982;51.474;7.228;2022-10-30T01:06:12;18.20;99.90
50969;DHT22;36982;51.474;7.228;2022-10-30T01:08:40;18.20;99.90
50969;DHT22;36982;51.474;7.228;2022-10-30T01:11:06;18.00;99.90
50969;DHT22;36982;51.474;7.228;2022-10-30T01:13:33;18.10;99.90
50969;DHT22;36982;51.474;7.228;2022-10-30T01:16:23;17.80;99.90
50969;DHT22;36982;51.474;7.228;2022-10-30T01:24:17;17.90;99.90
50969;DHT22;36982;51.474;7.228;2022-10-30T01:29:21;17.90;99.90
50969;DHT22;36982;51.474;7.228;2022-10-30T01:32:10;17.80;99.90
50969;DHT22;36982;51.474;7.228;2022-10-30T01:34:50;17.70;99.90
50969;DHT22;36982;51.474;7.228;2022-10-30T01:37:48;17.60;99.90
50969;DHT22;36982;51.474;7.228;2022-10-30T01:40:17;17.60;99.90
50969;DHT22;36982;51.474;7.228;2022-10-30T01:42:51;17.60;99.90
50969;DHT22;36982;51.474;7.228;2022-10-30T01:46:07;17.60;99.90
50969;DHT22;36982;51.474;7.228;2022-10-30T01:48:18;17.60;99.90
50969;DHT22;36982;51.474;7.228;2022-10-30T01:59:36;17.50;99.90
50969;DHT22;36982;51.474;7.228;2022-10-30T02:02:03;17.40;99.90
50969;DHT22;36982;51.474;7.228;2022-10-30T02:04:30;17.40;99.90
50969;DHT22;36982;51.474;7.228;2022-10-30T02:06:56;17.40;99.90
50969;DHT22;36982;51.474;7.228;2022-10-30T02:09:22;17.20;99.90
50969;DHT22;36982;51.474;7.228;2022-10-30T02:11:48;17.20;99.90
50969;DHT22;36982;51.474;7.228;2022-10-30T02:14:22;17.20;99.90
50969;DHT22;36982;51.474;7.228;2022-10-30T02:16:51;17.30;99.90
50969;DHT22;36982;51.474;7.228;2022-10-30T02:19:17;17.30;99.90
50969;DHT22;36982;51.474;7.228;2022-10-30T02:21:43;17.30;99.90
50969;DHT22;36982;51.474;7.228;2022-10-30T02:24:08;17.40;99.90
50969;DHT22;36982;51.474;7.228;2022-10-30T02:26:34;17.20;99.90
50969;DHT22;36982;51.474;7.228;2022-10-30T02:29:00;17.20;99.90
50969;DHT22;36982;51.474;7.228;2022-10-30T02:31:25;17.20;99.90
50969;DHT22;36982;51.474;7.228;2022-10-30T02:33:51;17.00;99.90
50969;DHT22;36982;51.474;7.228;2022-10-30T02:36:16;17.00;99.90
50969;DHT22;36982;51.474;7.228;2022-10-30T02:38:43;16.90;99.90
50969;DHT22;36982;51.474;7.228;2022-10-30T02:41:10;16.90;99.90
50969;DHT22;36982;51.474;7.228;2022-10-30T02:43:35;16.90;99.90
50969;DHT22;36982;51.474;7.228;2022-10-30T02:46:01;16.80;99.90
50969;DHT22;36982;51.474;7.228;2022-10-30T02:48:29;17.00;99.90
50969;DHT22;36982;51.474;7.228;2022-10-30T02:50:58;16.80;99.90
50969;DHT22;36982;51.474;7.228;2022-10-30T02:53:27;16.80;99.90
50969;DHT22;36982;51.474;7.228;2022-10-30T02:55:53;16.70;99.90
50969;DHT22;36982;51.474;7.228;2022-10-30T02:58:18;16.80;99.90
50969;DHT22;36982;51.474;7.228;2022-10-30T03:00:44;16.80;99.90
50969;DHT22;36982;51.474;7.228;2022-10-30T03:03:09;16.90;99.90
50969;DHT22;36982;51.474;7.228;2022-10-30T03:05:35;16.80;99.90
50969;DHT22;36982;51.474;7.228;2022-10-30T03:08:01;16.60;99.90
50969;DHT22;36982;51.474;7.228;2022-10-30T03:10:26;16.50;99.90
50969;DHT22;36982;51.474;7.228;2022-10-30T03:12:52;16.60;99.90
50969;DHT22;36982;51.474;7.228;2022-10-30T03:15:17;16.70;99.90
50969;DHT22;36982;51.474;7.228;2022-10-30T03:17:43;16.80;99.90
50969;DHT22;36982;51.474;7.228;2022-10-30T03:20:09;16.60;99.90
50969;DHT22;36982;51.474;7.228;2022-10-30T03:22:35;16.60;99.90
50969;DHT22;36982;51.474;7.228;2022-10-30T03:25:00;16.50;99.90
50969;DHT22;36982;51.474;7.228;2022-10-30T03:27:26;16.60;99.90
50969;DHT22;36982;51.474;7.228;2022-10-30T03:29:51;16.30;99.90
50969;DHT22;36982;51.474;7.228;2022-10-30T03:32:17;16.40;99.90
50969;DHT22;36982;51.474;7.228;2022-10-30T03:34:42;16.50;99.90
50969;DHT22;36982;51.474;7.228;2022-10-30T03:37:08;16.50;99.90
50969;DHT22;36982;51.474;7.228;2022-10-30T03:39:34;16.50;99.90
50969;DHT22;36982;51.474;7.228;2022-10-30T03:41:59;16.40;99.90
50969;DHT22;36982;51.474;7.228;2022-10-30T03:44:25;16.30;99.90
50969;DHT22;36982;51.474;7.228;2022-10-30T03:46:50;16.20;99.90
50969;DHT22;36982;51.474;7.228;2022-10-30T03:49:16;16.30;99.90
50969;DHT22;36982;51.474;7.228;2022-10-30T03:51:41;16.50;99.90
50969;DHT22;36982;51.474;7.228;2022-10-30T03:54:07;16.70;99.90
50969;DHT22;36982;51.474;7.228;2022-10-30T03:56:32;16.60;99.90
50969;DHT22;36982;51.474;7.228;2022-10-30T03:58:58;16.70;99.90
50969;DHT22;36982;51.474;7.228;2022-10-30T04:01:24;16.60;99.90
50969;DHT22;36982;51.474;7.228;2022-10-30T04:03:49;16.70;99.90
50969;DHT22;36982;51.474;7.228;2022-10-30T04:06:15;16.60;99.90
50969;DHT22;36982;51.474;7.228;2022-10-30T04:08:40;16.50;99.90
50969;DHT22;36982;51.474;7.228;2022-10-30T04:11:09;16.40;99.90
50969;DHT22;36982;51.474;7.228;2022-10-30T04:13:35;16.40;99.90
50969;DHT22;36982;51.474;7.228;2022-10-30T04:16:01;16.50;99.90
50969;DHT22;36982;51.474;7.228;2022-10-30T04:18:26;16.40;99.90
50969;DHT22;36982;51.474;7.228;2022-10-30T04:20:52;16.30;99.90
50969;DHT22;36982;51.474;7.228;2022-10-30T04:23:19;16.20;99.90
50969;DHT22;36982;51.474;7.228;2022-10-30T04:25:45;16.20;99.90
50969;DHT22;36982;51.474;7.228;2022-10-30T04:28:11;16.10;99.90
50969;DHT22;36982;51.474;7.228;2022-10-30T04:30:37;16.10;99.90
50969;DHT22;36982;51.474;7.228;2022-10-30T04:33:05;16.00;99.90
50969;DHT22;36982;51.474;7.228;2022-10-30T04:35:34;16.00;99.90
50969;DHT22;36982;51.474;7.228;2022-10-30T04:38:12;16.00;99.90
50969;DHT22;36982;51.474;7.228;2022-10-30T04:40:40;15.90;99.90
50969;DHT22;36982;51.474;7.228;2022-10-30T04:43:06;15.90;99.90
50969;DHT22;36982;51.474;7.228;2022-10-30T04:45:33;15.80;99.90
50969;DHT22;36982;51.474;7.228;2022-10-30T04:48:04;15.80;99.90
50969;DHT22;36982;51.474;7.228;2022-10-30T04:50:30;15.80;99.90
50969;DHT22;36982;51.474;7.228;2022-10-30T04:53:01;15.60;99.90
50969;DHT22;36982;51.474;7.228;2022-10-30T04:55:27;15.60;99.90
50969;DHT22;36982;51.474;7.228;2022-10-30T04:57:57;15.60;99.90
50969;DHT22;36982;51.474;7.228;2022-10-30T05:00:24;15.60;99.90
50969;DHT22;36982;51.474;7.228;2022-10-30T05:02:50;15.60;99.90
50969;DHT22;36982;51.474;7.228;2022-10-30T05:05:16;15.60;99.90
50969;DHT22;36982;51.474;7.228;2022-10-30T05:07:41;15.50;99.90
50969;DHT22;36982;51.474;7.228;2022-10-30T05:10:10;15.60;99.90
50969;DHT22;36982;51.474;7.228;2022-10-30T05:12:37;15.40;99.90
50969;DHT22;36982;51.474;7.228;2022-10-30T05:15:03;15.30;99.90
50969;DHT22;36982;51.474;7.228;2022-10-30T05:17:29;15.30;99.90
50969;DHT22;36982;51.474;7.228;2022-10-30T05:19:54;15.30;99.90
50969;DHT22;36982;51.474;7.228;2022-10-30T05:22:21;15.30;99.90
50969;DHT22;36982;51.474;7.228;2022-10-30T05:24:46;15.30;99.90
50969;DHT22;36982;51.474;7.228;2022-10-30T05:27:12;15.20;99.90
50969;DHT22;36982;51.474;7.228;2022-10-30T05:29:37;15.20;99.90
50969;DHT22;36982;51.474;7.228;2022-10-30T05:32:03;15.20;99.90
50969;DHT22;36982;51.474;7.228;2022-10-30T05:34:29;15.30;99.90
50969;DHT22;36982;51.474;7.228;2022-10-30T05:36:54;15.10;99.90
50969;DHT22;36982;51.474;7.228;2022-10-30T05:39:20;15.10;99.90
50969;DHT22;36982;51.474;7.228;2022-10-30T05:41:45;15.10;99.90
50969;DHT22;36982;51.474;7.228;2022-10-30T05:44:11;15.10;99.90
50969;DHT22;36982;51.474;7.228;2022-10-30T05:46:36;15.20;99.90
50969;DHT22;36982;51.474;7.228;2022-10-30T05:49:02;14.90;99.90
50969;DHT22;36982;51.474;7.228;2022-10-30T05:51:28;15.10;99.90
50969;DHT22;36982;51.474;7.228;2022-10-30T05:53:54;14.90;99.90
50969;DHT22;36982;51.474;7.228;2022-10-30T05:56:19;15.00;99.90
50969;DHT22;36982;51.474;7.228;2022-10-30T05:58:47;14.90;99.90
50969;DHT22;36982;51.474;7.228;2022-10-30T06:01:13;14.90;99.90
50969;DHT22;36982;51.474;7.228;2022-10-30T06:03:39;15.00;99.90
50969;DHT22;36982;51.474;7.228;2022-10-30T06:06:04;14.90;99.90
50969;DHT22;36982;51.474;7.228;2022-10-30T06:08:30;14.90;99.90
50969;DHT22;36982;51.474;7.228;2022-10-30T06:10:56;14.70;99.90
50969;DHT22;36982;51.474;7.228;2022-10-30T06:13:21;14.70;99.90
50969;DHT22;36982;51.474;7.228;2022-10-30T06:15:47;14.70;99.90
50969;DHT22;36982;51.474;7.228;2022-10-30T06:18:13;14.70;99.90
50969;DHT22;36982;51.474;7.228;2022-10-30T06:20:38;14.60;99.90
50969;DHT22;36982;51.474;7.228;2022-10-30T06:23:06;14.70;99.90
50969;DHT22;36982;51.474;7.228;2022-10-30T06:25:33;14.60;99.90
50969;DHT22;36982;51.474;7.228;2022-10-30T06:28:00;14.70;99.90
50969;DHT22;36982;51.474;7.228;2022-10-30T06:30:26;14.70;99.90
50969;DHT22;36982;51.474;7.228;2022-10-30T06:33:03;14.70;99.90
50969;DHT22;36982;51.474;7.228;2022-10-30T06:35:29;14.70;99.90
50969;DHT22;36982;51.474;7.228;2022-10-30T06:37:55;14.60;99.90
50969;DHT22;36982;51.474;7.228;2022-10-30T06:40:23;14.50;99.90
50969;DHT22;36982;51.474;7.228;2022-10-30T06:42:50;14.60;99.90
50969;DHT22;36982;51.474;7.228;2022-10-30T06:45:16;14.70;99.90
50969;DHT22;36982;51.474;7.228;2022-10-30T06:47:43;14.80;99.90
50969;DHT22;36982;51.474;7.228;2022-10-30T06:50:13;14.70;99.90
50969;DHT22;36982;51.474;7.228;2022-10-30T06:52:40;14.70;99.90
50969;DHT22;36982;51.474;7.228;2022-10-30T06:55:06;14.70;99.90
50969;DHT22;36982;51.474;7.228;2022-10-30T06:57:32;14.60;99.90
50969;DHT22;36982;51.474;7.228;2022-10-30T06:59:57;14.40;99.90
50969;DHT22;36982;51.474;7.228;2022-10-30T07:02:23;14.50;99.90
50969;DHT22;36982;51.474;7.228;2022-10-30T07:04:49;14.50;99.90
50969;DHT22;36982;51.474;7.228;2022-10-30T07:07:15;14.50;99.90
50969;DHT22;36982;51.474;7.228;2022-10-30T07:09:41;14.50;99.90
50969;DHT22;36982;51.474;7.228;2022-10-30T07:12:07;14.50;99.90
50969;DHT22;36982;51.474;7.228;2022-10-30T07:14:33;14.70;99.90
50969;DHT22;36982;51.474;7.228;2022-10-30T07:16:59;14.60;99.90
50969;DHT22;36982;51.474;7.228;2022-10-30T07:19:25;14.70;99.90
50969;DHT22;36982;51.474;7.228;2022-10-30T07:21:50;14.70;99.90
50969;DHT22;36982;51.474;7.228;2022-10-30T07:24:19;14.70;99.90
50969;DHT22;36982;51.474;7.228;2022-10-30T07:26:45;14.70;99.90
50969;DHT22;36982;51.474;7.228;2022-10-30T07:29:10;14.60;99.90
50969;DHT22;36982;51.474;7.228;2022-10-30T07:31:36;14.80;99.90
50969;DHT22;36982;51.474;7.228;2022-10-30T07:34:01;14.70;99.90
50969;DHT22;36982;51.474;7.228;2022-10-30T07:36:27;14.70;99.90
50969;DHT22;36982;51.474;7.228;2022-10-30T07:38:53;14.80;99.90
50969;DHT22;36982;51.474;7.228;2022-10-30T07:41:19;14.70;99.90
50969;DHT22;36982;51.474;7.228;2022-10-30T07:43:45;14.90;99.90
50969;DHT22;36982;51.474;7.228;2022-10-30T07:46:11;14.80;99.90
50969;DHT22;36982;51.474;7.228;2022-10-30T07:48:37;15.10;99.90
50969;DHT22;36982;51.474;7.228;2022-10-30T07:51:03;15.00;99.90
50969;DHT22;36982;51.474;7.228;2022-10-30T07:53:28;15.10;99.90
50969;DHT22;36982;51.474;7.228;2022-10-30T07:55:55;15.20;99.90
50969;DHT22;36982;51.474;7.228;2022-10-30T07:58:20;15.30;99.90
50969;DHT22;36982;51.474;7.228;2022-10-30T08:00:46;15.30;99.90
50969;DHT22;36982;51.474;7.228;2022-10-30T08:03:12;15.50;99.90
50969;DHT22;36982;51.474;7.228;2022-10-30T08:05:38;15.50;99.90
50969;DHT22;36982;51.474;7.228;2022-10-30T08:08:04;15.60;99.90
50969;DHT22;36982;51.474;7.228;2022-10-30T08:10:30;15.50;99.90
50969;DHT22;36982;51.474;7.228;2022-10-30T08:12:55;15.60;99.90
50969;DHT22;36982;51.474;7.228;2022-10-30T08:15:21;15.60;99.90
50969;DHT22;36982;51.474;7.228;2022-10-30T08:17:48;15.70;99.90
50969;DHT22;36982;51.474;7.228;2022-10-30T08:20:17;15.70;99.90
50969;DHT22;36982;51.474;7.228;2022-10-30T08:22:45;15.70;99.90
50969;DHT22;36982;51.474;7.228;2022-10-30T08:25:10;15.70;99.90
50969;DHT22;36982;51.474;7.228;2022-10-30T08:27:36;16.20;99.90
50969;DHT22;36982;51.474;7.228;2022-10-30T08:30:02;16.10;99.90
50969;DHT22;36982;51.474;7.228;2022-10-30T08:32:28;16.20;99.90
50969;DHT22;36982;51.474;7.228;2022-10-30T08:34:53;16.30;99.90
50969;DHT22;36982;51.474;7.228;2022-10-30T08:37:19;16.30;99.90
50969;DHT22;36982;51.474;7.228;2022-10-30T08:39:44;16.30;99.90
50969;DHT22;36982;51.474;7.228;2022-10-30T08:42:10;16.50;99.90
50969;DHT22;36982;51.474;7.228;2022-10-30T08:44:35;16.60;99.90
50969;DHT22;36982;51.474;7.228;2022-10-30T08:47:01;16.80;99.90
50969;DHT22;36982;51.474;7.228;2022-10-30T08:49:27;16.60;99.90
50969;DHT22;36982;51.474;7.228;2022-10-30T08:51:52;16.70;99.90
50969;DHT22;36982;51.474;7.228;2022-10-30T08:54:18;16.80;99.90
50969;DHT22;36982;51.474;7.228;2022-10-30T08:56:43;17.00;99.90
50969;DHT22;36982;51.474;7.228;2022-10-30T08:59:09;16.70;99.90
50969;DHT22;36982;51.474;7.228;2022-10-30T09:01:34;17.00;99.90
50969;DHT22;36982;51.474;7.228;2022-10-30T09:04:01;17.10;99.90
50969;DHT22;36982;51.474;7.228;2022-10-30T09:06:27;17.20;99.90
50969;DHT22;36982;51.474;7.228;2022-10-30T09:08:52;17.30;99.90
50969;DHT22;36982;51.474;7.228;2022-10-30T09:11:18;17.50;99.90
50969;DHT22;36982;51.474;7.228;2022-10-30T09:13:44;17.50;99.90
50969;DHT22;36982;51.474;7.228;2022-10-30T09:16:09;17.60;99.90
50969;DHT22;36982;51.474;7.228;2022-10-30T09:18:35;17.60;99.90
50969;DHT22;36982;51.474;7.228;2022-10-30T09:21:00;17.70;99.90
50969;DHT22;36982;51.474;7.228;2022-10-30T09:23:26;17.70;99.90
50969;DHT22;36982;51.474;7.228;2022-10-30T09:25:51;17.60;99.90
50969;DHT22;36982;51.474;7.228;2022-10-30T09:28:17;17.80;99.90
50969;DHT22;36982;51.474;7.228;2022-10-30T09:30:43;17.90;99.90
50969;DHT22;36982;51.474;7.228;2022-10-30T09:33:08;18.00;99.90
50969;DHT22;36982;51.474;7.228;2022-10-30T09:35:34;18.10;99.90
50969;DHT22;36982;51.474;7.228;2022-10-30T09:38:01;18.10;99.90
50969;DHT22;36982;51.474;7.228;2022-10-30T09:46:21;18.10;99.90
50969;DHT22;36982;51.474;7.228;2022-10-30T09:49:00;18.30;99.90
50969;DHT22;36982;51.474;7.228;2022-10-30T09:51:34;18.40;99.90
50969;DHT22;36982;51.474;7.228;2022-10-30T09:57:48;18.40;99.90
50969;DHT22;36982;51.474;7.228;2022-10-30T10:00:10;18.50;99.90
50969;DHT22;36982;51.474;7.228;2022-10-30T10:05:22;18.60;99.90
50969;DHT22;36982;51.474;7.228;2022-10-30T10:07:51;18.70;99.90
50969;DHT22;36982;51.474;7.228;2022-10-30T10:10:43;18.80;99.90
50969;DHT22;36982;51.474;7.228;2022-10-30T10:13:26;19.00;99.90
50969;DHT22;36982;51.474;7.228;2022-10-30T10:15:58;19.00;99.90
50969;DHT22;36982;51.474;7.228;2022-10-30T10:21:22;19.20;99.90
50969;DHT22;36982;51.474;7.228;2022-10-30T10:23:50;19.30;99.90
50969;DHT22;36982;51.474;7.228;2022-10-30T10:32:15;19.50;99.90
50969;DHT22;36982;51.474;7.228;2022-10-30T10:37:55;19.50;99.90
50969;DHT22;36982;51.474;7.228;2022-10-30T10:41:03;19.60;99.90
50969;DHT22;36982;51.474;7.228;2022-10-30T10:49:50;19.80;99.90
50969;DHT22;36982;51.474;7.228;2022-10-30T10:52:16;19.80;99.90
50969;DHT22;36982;51.474;7.228;2022-10-30T10:54:45;19.90;99.90
50969;DHT22;36982;51.474;7.228;2022-10-30T10:57:28;19.80;99.90
50969;DHT22;36982;51.474;7.228;2022-10-30T11:00:15;19.90;99.90
50969;DHT22;36982;51.474;7.228;2022-10-30T11:02:50;20.00;99.90
50969;DHT22;36982;51.474;7.228;2022-10-30T11:06:11;20.00;99.90
50969;DHT22;36982;51.474;7.228;2022-10-30T11:08:30;20.10;99.90
50969;DHT22;36982;51.474;7.228;2022-10-30T11:10:58;20.20;99.90
50969;DHT22;36982;51.474;7.228;2022-10-30T11:13:30;20.30;99.90
50969;DHT22;36982;51.474;7.228;2022-10-30T11:18:51;20.40;99.90
50969;DHT22;36982;51.474;7.228;2022-10-30T11:21:20;20.50;99.90
50969;DHT22;36982;51.474;7.228;2022-10-30T11:23:47;20.70;99.90
50969;DHT22;36982;51.474;7.228;2022-10-30T11:28:56;20.70;99.90
50969;DHT22;36982;51.474;7.228;2022-10-30T11:33:54;20.60;99.90
50969;DHT22;36982;51.474;7.228;2022-10-30T11:36:24;20.60;99.90
50969;DHT22;36982;51.474;7.228;2022-10-30T11:38:51;20.60;99.90
50969;DHT22;36982;51.474;7.228;2022-10-30T11:41:18;20.70;99.90
50969;DHT22;36982;51.474;7.228;2022-10-30T11:43:45;20.80;99.90
50969;DHT22;36982;51.474;7.228;2022-10-30T11:46:21;20.80;99.90
50969;DHT22;36982;51.474;7.228;2022-10-30T11:48:47;20.90;99.90
50969;DHT22;36982;51.474;7.228;2022-10-30T11:51:32;21.00;99.90
50969;DHT22;36982;51.474;7.228;2022-10-30T11:53:59;21.00;99.90
50969;DHT22;36982;51.474;7.228;2022-10-30T11:56:25;21.20;99.90
50969;DHT22;36982;51.474;7.228;2022-10-30T11:58:53;21.00;99.90
50969;DHT22;36982;51.474;7.228;2022-10-30T12:01:27;21.10;99.90
50969;DHT22;36982;51.474;7.228;2022-10-30T12:03:54;21.00;99.90
50969;DHT22;36982;51.474;7.228;2022-10-30T12:09:08;21.20;99.90
50969;DHT22;36982;51.474;7.228;2022-10-30T12:11:35;21.30;99.90
50969;DHT22;36982;51.474;7.228;2022-10-30T12:14:03;21.30;99.90
50969;DHT22;36982;51.474;7.228;2022-10-30T12:16:29;21.30;99.90
50969;DHT22;36982;51.474;7.228;2022-10-30T12:18:59;21.30;99.90
50969;DHT22;36982;51.474;7.228;2022-10-30T12:21:26;21.40;99.90
50969;DHT22;36982;51.474;7.228;2022-10-30T12:23:56;21.40;99.90
50969;DHT22;36982;51.474;7.228;2022-10-30T12:26:23;21.60;99.90
50969;DHT22;36982;51.474;7.228;2022-10-30T12:28:59;21.50;99.90
50969;DHT22;36982;51.474;7.228;2022-10-30T12:31:38;21.50;99.90
50969;DHT22;36982;51.474;7.228;2022-10-30T12:34:32;21.50;99.90
50969;DHT22;36982;51.474;7.228;2022-10-30T12:37:20;21.70;99.90
50969;DHT22;36982;51.474;7.228;2022-10-30T12:42:21;21.60;99.90
50969;DHT22;36982;51.474;7.228;2022-10-30T12:47:33;21.70;99.90
50969;DHT22;36982;51.474;7.228;2022-10-30T12:50:22;21.70;99.90
50969;DHT22;36982;51.474;7.228;2022-10-30T12:52:55;21.70;99.90
50969;DHT22;36982;51.474;7.228;2022-10-30T12:55:32;21.70;99.90
50969;DHT22;36982;51.474;7.228;2022-10-30T12:58:25;21.60;99.90
50969;DHT22;36982;51.474;7.228;2022-10-30T13:01:24;21.70;99.90
50969;DHT22;36982;51.474;7.228;2022-10-30T13:07:04;21.70;99.90
50969;DHT22;36982;51.474;7.228;2022-10-30T13:09:48;21.60;99.90
50969;DHT22;36982;51.474;7.228;2022-10-30T13:12:18;21.70;99.90
50969;DHT22;36982;51.474;7.228;2022-10-30T13:14:51;21.80;99.90
50969;DHT22;36982;51.474;7.228;2022-10-30T13:17:18;21.70;99.90
50969;DHT22;36982;51.474;7.228;2022-10-30T13:19:45;21.80;99.90
50969;DHT22;36982;51.474;7.228;2022-10-30T13:22:30;21.90;99.90
50969;DHT22;36982;51.474;7.228;2022-10-30T13:25:07;21.70;99.90
50969;DHT22;36982;51.474;7.228;2022-10-30T13:30:22;21.70;99.90
50969;DHT22;36982;51.474;7.228;2022-10-30T13:35:26;21.60;99.90
50969;DHT22;36982;51.474;7.228;2022-10-30T13:44:03;21.60;99.90
50969;DHT22;36982;51.474;7.228;2022-10-30T13:52:15;21.80;99.90
50969;DHT22;36982;51.474;7.228;2022-10-30T13:55:12;21.80;99.90
50969;DHT22;36982;51.474;7.228;2022-10-30T13:57:46;21.90;99.90
50969;DHT22;36982;51.474;7.228;2022-10-30T14:00:33;21.80;99.90
50969;DHT22;36982;51.474;7.228;2022-10-30T14:11:27;21.90;99.90
50969;DHT22;36982;51.474;7.228;2022-10-30T14:14:02;21.90;99.90
50969;DHT22;36982;51.474;7.228;2022-10-30T14:19:07;21.70;99.90
50969;DHT22;36982;51.474;7.228;2022-10-30T14:39:50;21.60;99.90
50969;DHT22;36982;51.474;7.228;2022-10-30T14:45:40;21.40;99.90
50969;DHT22;36982;51.474;7.228;2022-10-30T14:48:23;21.40;99.90
50969;DHT22;36982;51.474;7.228;2022-10-30T14:51:21;21.40;99.90
50969;DHT22;36982;51.474;7.228;2022-10-30T14:56:45;21.30;99.90
50969;DHT22;36982;51.474;7.228;2022-10-30T15:12:32;21.00;99.90
50969;DHT22;36982;51.474;7.228;2022-10-30T15:18:38;20.60;99.90
50969;DHT22;36982;51.474;7.228;2022-10-30T15:21:05;20.60;99.90
50969;DHT22;36982;51.474;7.228;2022-10-30T15:23:35;20.60;99.90
50969;DHT22;36982;51.474;7.228;2022-10-30T15:26:04;20.60;99.90
50969;DHT22;36982;51.474;7.228;2022-10-30T15:28:32;20.40;99.90
50969;DHT22;36982;51.474;7.228;2022-10-30T15:33:27;20.20;99.90
50969;DHT22;36982;51.474;7.228;2022-10-30T15:35:56;20.20;99.90
50969;DHT22;36982;51.474;7.228;2022-10-30T15:38:21;20.10;99.90
50969;DHT22;36982;51.474;7.228;2022-10-30T15:40:47;20.10;99.90
50969;DHT22;36982;51.474;7.228;2022-10-30T15:43:14;20.10;99.90
50969;DHT22;36982;51.474;7.228;2022-10-30T15:45:45;20.00;99.90
50969;DHT22;36982;51.474;7.228;2022-10-30T15:48:32;19.90;99.90
50969;DHT22;36982;51.474;7.228;2022-10-30T15:51:16;19.70;99.90
50969;DHT22;36982;51.474;7.228;2022-10-30T15:53:55;19.80;99.90
50969;DHT22;36982;51.474;7.228;2022-10-30T15:56:25;19.70;99.90
50969;DHT22;36982;51.474;7.228;2022-10-30T15:58:57;19.50;99.90
50969;DHT22;36982;51.474;7.228;2022-10-30T16:01:26;19.40;99.90
50969;DHT22;36982;51.474;7.228;2022-10-30T16:03:54;19.40;99.90
50969;DHT22;36982;51.474;7.228;2022-10-30T16:06:26;19.30;99.90
50969;DHT22;36982;51.474;7.228;2022-10-30T16:08:52;19.10;99.90
50969;DHT22;36982;51.474;7.228;2022-10-30T16:11:17;19.10;99.90
50969;DHT22;36982;51.474;7.228;2022-10-30T16:13:45;19.20;99.90
50969;DHT22;36982;51.474;7.228;2022-10-30T16:16:29;19.20;99.90
50969;DHT22;36982;51.474;7.228;2022-10-30T16:19:02;19.10;99.90
50969;DHT22;36982;51.474;7.228;2022-10-30T16:21:29;18.90;99.90
50969;DHT22;36982;51.474;7.228;2022-10-30T16:24:00;18.80;99.90
50969;DHT22;36982;51.474;7.228;2022-10-30T16:26:30;18.90;99.90
50969;DHT22;36982;51.474;7.228;2022-10-30T16:29:00;18.70;99.90
50969;DHT22;36982;51.474;7.228;2022-10-30T16:31:32;18.50;99.90
50969;DHT22;36982;51.474;7.228;2022-10-30T16:33:58;18.50;99.90
50969;DHT22;36982;51.474;7.228;2022-10-30T16:36:25;18.50;99.90
50969;DHT22;36982;51.474;7.228;2022-10-30T16:38:50;18.50;99.90
50969;DHT22;36982;51.474;7.228;2022-10-30T16:41:17;18.30;99.90
50969;DHT22;36982;51.474;7.228;2022-10-30T16:46:52;18.30;99.90
50969;DHT22;36982;51.474;7.228;2022-10-30T16:49:21;18.20;99.90
50969;DHT22;36982;51.474;7.228;2022-10-30T16:51:55;18.20;99.90
50969;DHT22;36982;51.474;7.228;2022-10-30T16:54:27;18.20;99.90
50969;DHT22;36982;51.474;7.228;2022-10-30T16:56:55;18.00;99.90
50969;DHT22;36982;51.474;7.228;2022-10-30T16:59:34;17.90;99.90
50969;DHT22;36982;51.474;7.228;2022-10-30T17:02:02;17.90;99.90
50969;DHT22;36982;51.474;7.228;2022-10-30T17:04:31;17.90;99.90
50969;DHT22;36982;51.474;7.228;2022-10-30T17:07:13;17.80;99.90
50969;DHT22;36982;51.474;7.228;2022-10-30T17:09:41;17.70;99.90
50969;DHT22;36982;51.474;7.228;2022-10-30T17:14:53;17.70;99.90
50969;DHT22;36982;51.474;7.228;2022-10-30T17:17:26;17.70;99.90
50969;DHT22;36982;51.474;7.228;2022-10-30T17:22:49;17.70;99.90
50969;DHT22;36982;51.474;7.228;2022-10-30T17:25:36;17.70;99.90
50969;DHT22;36982;51.474;7.228;2022-10-30T17:28:02;17.70;99.90
50969;DHT22;36982;51.474;7.228;2022-10-30T17:30:38;17.60;99.90
50969;DHT22;36982;51.474;7.228;2022-10-30T17:33:35;17.60;99.90
50969;DHT22;36982;51.474;7.228;2022-10-30T17:36:03;17.60;99.90
50969;DHT22;36982;51.474;7.228;2022-10-30T17:38:29;17.60;99.90
50969;DHT22;36982;51.474;7.228;2022-10-30T17:40:54;17.70;99.90
50969;DHT22;36982;51.474;7.228;2022-10-30T17:43:24;17.70;99.90
50969;DHT22;36982;51.474;7.228;2022-10-30T17:45:50;17.60;99.90
50969;DHT22;36982;51.474;7.228;2022-10-30T17:48:17;17.50;99.90
50969;DHT22;36982;51.474;7.228;2022-10-30T17:50:43;17.50;99.90
50969;DHT22;36982;51.474;7.228;2022-10-30T17:53:18;17.60;99.90
50969;DHT22;36982;51.474;7.228;2022-10-30T17:55:58;17.60;99.90
50969;DHT22;36982;51.474;7.228;2022-10-30T17:58:25;17.70;99.90
50969;DHT22;36982;51.474;7.228;2022-10-30T18:00:51;17.60;99.90
50969;DHT22;36982;51.474;7.228;2022-10-30T18:03:16;17.50;99.90
50969;DHT22;36982;51.474;7.228;2022-10-30T18:05:42;17.50;99.90
50969;DHT22;36982;51.474;7.228;2022-10-30T18:08:08;17.50;99.90
50969;DHT22;36982;51.474;7.228;2022-10-30T18:10:33;17.50;99.90
50969;DHT22;36982;51.474;7.228;2022-10-30T18:12:59;17.50;99.90